Time;durP1;ratioP1;P1;durP2;ratioP2;P2;SDS_P1;SDS_P2;PMS_P1;PMS_P2;Temp;Humidity;BMP_temperature;BMP_pressure;BME280_temperature;BME280_humidity;BME280_pressure;Samples;Min_cycle;Max_cycle;Signal;HPM_P1;HPM_P2
2022/12/05 00:04:11;;;;;;;32.83;19.08;;;;;;;7.82;62.06;100380.44;7685822;32;41222;-84
2022/12/05 00:08:28;;;;;;;36.15;19.37;;;;;;;7.87;61.99;100366.97;7708309;32;37908;-82
2022/12/05 00:12:45;;;;;;;32.35;18.48;;;;;;;7.31;63.15;100369.25;7712154;32;37892;-81
2022/12/05 00:17:01;;;;;;;33.40;19.35;;;;;;;8.00;61.54;100374.00;7699210;32;39276;-83
2022/12/05 00:21:23;;;;;;;33.78;19.80;;;;;;;7.52;63.04;100370.56;7685467;32;40446;-84
2022/12/05 00:25:40;;;;;;;31.50;19.10;;;;;;;7.67;62.75;100370.06;7685036;32;38736;-82
2022/12/05 00:29:56;;;;;;;35.60;20.55;;;;;;;7.44;64.07;100363.59;7685501;32;37043;-84
2022/12/05 00:34:13;;;;;;;32.47;19.80;;;;;;;7.68;63.04;100361.69;7685401;32;39274;-84
2022/12/05 00:38:29;;;;;;;31.62;19.50;;;;;;;7.66;63.34;100354.84;7686363;32;39983;-80
2022/12/05 00:42:45;;;;;;;31.98;18.75;;;;;;;7.49;63.64;100355.56;7711739;32;37988;-83
2022/12/05 00:47:07;;;;;;;35.55;19.65;;;;;;;7.55;63.22;100361.94;7711855;32;37942;-87
2022/12/05 00:51:28;;;;;;;31.48;19.52;;;;;;;7.74;62.49;100351.75;7710474;32;39963;-86
2022/12/05 00:55:45;;;;;;;32.55;19.42;;;;;;;7.77;62.35;100351.28;7692320;32;40862;-83
2022/12/05 01:00:02;;;;;;;32.33;18.60;;;;;;;7.48;63.21;100353.09;7684989;32;38218;-83
2022/12/05 01:04:21;;;;;;;30.20;18.80;;;;;;;7.74;62.34;100351.75;7683816;32;37052;-83
2022/12/05 01:08:38;;;;;;;29.63;19.05;;;;;;;7.17;63.71;100352.41;7685002;32;40008;-83
2022/12/05 01:12:54;;;;;;;32.08;18.50;;;;;;;7.46;62.83;100361.47;7684825;32;40717;-83
2022/12/05 01:17:10;;;;;;;34.58;18.60;;;;;;;7.60;62.64;100358.50;7684597;32;38141;-83
2022/12/05 01:21:26;;;;;;;31.27;17.73;;;;;;;7.50;62.79;100361.81;7684576;32;37086;-82
2022/12/05 01:25:45;;;;;;;27.10;16.75;;;;;;;7.67;61.91;100361.91;7684746;32;39238;-83
2022/12/05 01:30:01;;;;;;;28.48;17.30;;;;;;;7.50;62.49;100349.09;7684646;32;39968;-83
2022/12/05 01:34:18;;;;;;;35.38;17.00;;;;;;;7.73;61.56;100336.56;7686827;32;39234;-83
2022/12/05 01:38:34;;;;;;;30.80;17.00;;;;;;;7.64;61.81;100335.25;7709984;32;37853;-83
2022/12/05 01:42:50;;;;;;;29.50;16.75;;;;;;;7.59;61.84;100337.84;7711250;32;39984;-83
2022/12/05 01:47:07;;;;;;;29.10;17.35;;;;;;;7.58;61.56;100336.22;7711031;32;40861;-82
2022/12/05 01:51:24;;;;;;;30.25;17.75;;;;;;;7.24;62.83;100325.16;7709686;32;38709;-83
2022/12/05 01:55:40;;;;;;;33.15;17.30;;;;;;;7.14;63.41;100332.00;7710712;32;37813;-83
2022/12/05 02:00:01;;;;;;;27.95;15.93;;;;;;;7.28;62.86;100334.50;7710953;32;39339;-83
2022/12/05 02:04:17;;;;;;;25.23;15.48;;;;;;;7.27;63.21;100332.84;7706758;32;40836;-83
2022/12/05 02:08:33;;;;;;;27.62;16.90;;;;;;;7.13;63.32;100341.19;7683855;32;38773;-83
2022/12/05 02:12:50;;;;;;;26.60;15.98;;;;;;;7.05;63.49;100338.84;7683879;32;38247;-84
2022/12/05 02:17:29;;;;;;;26.35;15.85;;;;;;;7.23;62.71;100332.47;7693920;32;40003;-83
2022/12/05 02:21:51;;;;;;;31.52;15.75;;;;;;;7.21;62.78;100331.06;7710416;32;40980;-83
2022/12/05 02:26:31;;;;;;;26.25;15.38;;;;;;;7.40;62.27;100343.44;7698763;32;38785;-84
2022/12/05 02:30:55;;;;;;;27.10;16.23;;;;;;;7.08;63.58;100343.78;7683549;32;36849;-84
2022/12/05 02:35:15;;;;;;;;;;;;;;;6.88;64.10;100354.97;7707543;32;40072;-83
2022/12/05 02:39:53;;;;;;;23.65;13.75;;;;;;;7.64;61.75;100340.69;7710308;32;40250;-84
2022/12/05 02:44:21;;;;;;;24.98;14.90;;;;;;;7.42;62.27;100349.44;7709796;32;37709;-83
2022/12/05 02:48:40;;;;;;;22.65;13.52;;;;;;;7.56;61.69;100354.63;7711585;32;36834;-83
2022/12/05 02:52:59;;;;;;;21.80;13.27;;;;;;;7.01;62.90;100364.78;7711869;32;38275;-83
2022/12/05 02:57:15;;;;;;;27.77;12.90;;;;;;;7.25;62.04;100362.09;7712021;32;39911;-84
2022/12/05 03:01:32;;;;;;;21.67;13.20;;;;;;;7.10;62.26;100359.81;7711645;32;37628;-84
2022/12/05 03:05:53;;;;;;;21.25;13.30;;;;;;;6.82;63.61;100355.09;7713177;32;37876;-83
2022/12/05 03:10:11;;;;;;;28.20;13.52;;;;;;;6.86;63.58;100369.81;7713118;32;39297;-83
2022/12/05 03:14:31;;;;;;;24.90;12.37;;;;;;;6.86;63.58;100372.53;7712846;32;40057;-83
2022/12/05 03:18:53;;;;;;;23.65;13.20;;;;;;;7.10;62.74;100371.50;7711358;32;37616;-84
2022/12/05 03:23:19;;;;;;;23.73;13.65;;;;;;;6.90;63.37;100368.31;7712950;32;37266;-84
2022/12/05 03:27:46;;;;;;;22.08;13.23;;;;;;;7.20;62.33;100357.34;7711756;32;40163;-84
2022/12/05 03:32:10;;;;;;;27.05;14.38;;;;;;;7.09;62.90;100358.19;7712400;32;38845;-83
2022/12/05 03:36:36;;;;;;;;;;;;;;;7.23;62.14;100361.50;7711971;32;37977;-82
2022/12/05 03:40:55;;;;;;;24.70;13.00;;;;;;;7.04;63.13;100364.31;7713134;32;37330;-84
2022/12/05 03:45:14;;;;;;;22.52;13.75;;;;;;;7.11;62.90;100358.78;7712710;32;40088;-83
2022/12/05 03:49:38;;;;;;;26.62;13.70;;;;;;;7.12;63.18;100349.56;7712611;32;40739;-83
2022/12/05 03:53:59;;;;;;;22.40;13.25;;;;;;;7.18;62.98;100354.06;7712509;32;38794;-83
2022/12/05 03:58:27;;;;;;;25.65;13.35;;;;;;;7.12;63.40;100354.97;7710840;32;37094;-83
2022/12/05 04:03:06;;;;;;;22.10;12.52;;;;;;;7.11;63.25;100354.16;7711013;32;39189;-84
2022/12/05 04:07:24;;;;;;;26.45;13.75;;;;;;;7.03;63.81;100362.66;7711402;32;39896;-84
2022/12/05 04:11:44;;;;;;;23.35;13.52;;;;;;;7.06;63.72;100353.22;7701863;32;38729;-84
2022/12/05 04:25:54;;;;;;;20.77;12.57;;;;;;;7.21;63.38;100385.28;7685462;32;40654;-84
2022/12/05 04:30:16;;;;;;;24.95;13.25;;;;;;;6.58;65.62;100376.69;7684631;32;38065;-83
2022/12/05 04:34:34;;;;;;;19.92;12.20;;;;;;;7.01;63.77;100375.63;7709166;32;36932;-84
2022/12/05 04:38:59;;;;;;;24.42;12.23;;;;;;;7.10;63.76;100363.34;7711962;32;39767;-83
2022/12/05 04:43:16;;;;;;;20.95;12.25;;;;;;;6.89;64.41;100361.22;7691682;32;40900;-83
2022/12/05 04:47:38;;;;;;;21.77;13.65;;;;;;;7.14;63.69;100353.72;7685223;32;38751;-83
2022/12/05 04:51:57;;;;;;;24.60;12.10;;;;;;;7.24;63.38;100346.84;7683982;32;37151;-83
2022/12/05 04:56:17;;;;;;;22.95;12.77;;;;;;;6.73;64.57;100347.28;7684208;32;39993;-83
2022/12/05 05:01:01;;;;;;;22.02;12.73;;;;;;;7.01;64.28;100344.97;7683935;32;39842;-83
2022/12/05 05:05:18;;;;;;;21.65;13.23;;;;;;;6.89;64.51;100339.53;7672300;32;38695;-83
2022/12/05 05:09:35;;;;;;;24.67;14.15;;;;;;;6.67;65.49;100329.25;7683725;32;37798;-83
2022/12/05 05:13:52;;;;;;;24.42;15.00;;;;;;;6.50;65.80;100334.53;7708649;32;39572;-82
2022/12/05 05:18:09;;;;;;;24.80;13.93;;;;;;;6.46;66.30;100349.56;7711426;32;39952;-83
2022/12/05 05:22:25;;;;;;;23.40;13.70;;;;;;;6.82;65.10;100360.50;7710245;32;37972;-83
2022/12/05 05:26:44;;;;;;;22.87;13.43;;;;;;;6.37;66.45;100356.38;7711513;32;37383;-83
2022/12/05 05:31:03;;;;;;;28.02;15.02;;;;;;;6.38;66.70;100355.31;7710240;32;39853;-83
2022/12/05 05:35:20;;;;;;;25.55;14.73;;;;;;;6.12;67.49;100364.62;7711231;32;40751;-83
2022/12/05 05:39:36;;;;;;;26.62;13.95;;;;;;;6.53;66.37;100363.03;7710081;32;37877;-83
2022/12/05 05:43:53;;;;;;;28.73;14.80;;;;;;;6.27;67.26;100365.03;7685806;32;37161;-83
2022/12/05 05:48:09;;;;;;;29.02;15.00;;;;;;;6.76;65.72;100365.81;7684479;32;39310;-83
2022/12/05 05:52:25;;;;;;;25.83;14.90;;;;;;;6.45;67.02;100377.72;7683979;32;41129;-83
2022/12/05 05:56:42;;;;;;;26.33;14.27;;;;;;;6.69;65.62;100394.03;7684300;32;38730;-83
2022/12/05 06:01:09;;;;;;;24.70;13.85;;;;;;;6.91;65.42;100386.22;7691824;32;36890;-83
2022/12/05 06:05:25;;;;;;;27.52;14.35;;;;;;;6.48;66.26;100387.25;7710854;32;39321;-83
2022/12/05 06:09:41;;;;;;;25.50;13.62;;;;;;;6.65;66.06;100398.28;7709250;32;39916;-84
2022/12/05 06:14:01;;;;;;;22.98;13.98;;;;;;;6.54;66.41;100397.19;7683822;32;37968;-84
2022/12/05 06:18:17;;;;;;;24.98;14.15;;;;;;;6.64;66.25;100397.47;7682674;32;36877;-82
2022/12/05 06:22:34;;;;;;;27.52;13.93;;;;;;;6.80;65.63;100403.28;7683142;32;39136;-81
2022/12/05 06:26:50;;;;;;;24.75;13.85;;;;;;;6.56;66.70;100398.59;7682399;32;40570;-80
2022/12/05 06:31:11;;;;;;;23.17;13.00;;;;;;;6.82;65.95;100399.28;7682451;32;37632;-81
2022/12/05 06:35:28;;;;;;;25.80;13.45;;;;;;;6.94;65.36;100407.44;7706527;32;36759;-80
2022/12/05 06:39:44;;;;;;;24.60;14.23;;;;;;;7.01;65.21;100391.88;7709972;32;39055;-81
2022/12/05 06:44:03;;;;;;;24.42;13.98;;;;;;;6.80;65.81;100406.00;7693201;32;39690;-80
2022/12/05 06:48:19;;;;;;;26.17;13.90;;;;;;;6.43;66.78;100425.03;7682702;32;38182;-80
2022/12/05 06:52:36;;;;;;;26.15;14.48;;;;;;;6.81;67.68;100424.72;7682841;32;37923;-81
2022/12/05 06:56:52;;;;;;;22.73;12.88;;;;;;;6.85;67.03;100422.38;7682954;32;39024;-81
2022/12/05 07:05:51;;;;;;;26.50;13.02;;;;;;;7.17;65.45;100430.22;7682709;32;38697;-82
2022/12/05 07:10:07;;;;;;;25.65;12.75;;;;;;;6.48;67.94;100430.59;7682966;32;37264;-82
2022/12/05 07:14:23;;;;;;;25.33;12.60;;;;;;;6.99;65.95;100434.66;7683241;32;40503;-82
2022/12/05 07:18:59;;;;;;;27.40;14.50;;;;;;;6.30;67.89;100437.72;7685546;32;40100;-82
2022/12/05 07:23:16;;;;;;;22.08;12.20;;;;;;;6.89;66.61;100437.13;7706280;32;37756;-82
2022/12/05 07:27:32;;;;;;;24.77;12.50;;;;;;;7.04;65.84;100444.81;7708675;32;37066;-82
2022/12/05 07:31:49;;;;;;;26.65;12.35;;;;;;;7.24;65.51;100433.66;7707529;32;39911;-81
2022/12/05 07:36:06;;;;;;;24.15;12.45;;;;;;;7.21;65.45;100436.81;7710954;32;40027;-84
2022/12/05 07:40:22;;;;;;;23.65;12.30;;;;;;;6.67;67.74;100440.34;7712586;32;38192;-84
2022/12/05 07:44:38;;;;;;;25.25;13.40;;;;;;;6.38;68.48;100439.25;7707380;32;37167;-82
2022/12/05 07:48:55;;;;;;;25.05;12.80;;;;;;;6.73;67.55;100449.44;7712589;32;40016;-82
2022/12/05 07:53:13;;;;;;;24.70;12.98;;;;;;;6.38;68.66;100447.37;7712334;32;40004;-81
2022/12/05 07:57:30;;;;;;;24.85;13.45;;;;;;;6.47;68.12;100458.75;7702898;32;38837;-80
2022/12/05 08:01:46;;;;;;;24.52;12.50;;;;;;;6.77;67.47;100462.28;7708129;32;37207;-82
2022/12/05 08:06:04;;;;;;;29.05;15.07;;;;;;;6.95;67.50;100466.84;7699838;32;39237;-83
2022/12/05 08:10:20;;;;;;;24.95;12.43;;;;;;;6.46;68.78;100467.94;7702221;32;41393;-81
2022/12/05 08:14:36;;;;;;;23.58;11.93;;;;;;;7.02;67.64;100464.03;7686131;32;38711;-83
2022/12/05 08:19:04;;;;;;;25.25;13.40;;;;;;;7.20;66.96;100475.84;7711215;32;37824;-82
2022/12/05 08:23:21;;;;;;;24.15;12.27;;;;;;;7.07;66.62;100488.56;7710708;32;39172;-83
2022/12/05 08:27:39;;;;;;;24.63;12.50;;;;;;;7.18;66.42;100480.69;7711793;32;38755;-83
2022/12/05 08:31:56;;;;;;;23.95;13.18;;;;;;;7.39;65.66;100482.03;7711832;32;37701;-82
2022/12/05 08:36:14;;;;;;;22.40;13.65;;;;;;;7.25;66.08;100481.41;7711638;32;37742;-82
2022/12/05 08:40:30;;;;;;;23.75;14.02;;;;;;;6.98;67.01;100489.94;7708535;32;39149;-81
2022/12/05 08:44:49;;;;;;;24.23;12.82;;;;;;;7.22;66.33;100484.59;7687828;32;39727;-81
2022/12/05 08:49:06;;;;;;;31.05;14.20;;;;;;;7.30;66.23;100478.84;7697073;32;37952;-86
2022/12/05 08:53:22;;;;;;;24.12;13.15;;;;;;;7.18;66.58;100473.38;7710643;32;37735;-85
2022/12/05 08:57:38;;;;;;;22.37;12.82;;;;;;;6.97;67.34;100477.47;7710723;32;40043;-85
2022/12/05 09:01:54;;;;;;;22.00;11.95;;;;;;;6.73;68.14;100477.37;7711840;32;40623;-85
2022/12/05 09:06:15;;;;;;;23.45;12.37;;;;;;;7.06;67.25;100486.91;7700627;32;37234;-85
2022/12/05 09:10:31;;;;;;;24.63;12.57;;;;;;;7.40;66.15;100480.94;7697502;32;38127;-82
2022/12/05 09:14:47;;;;;;;27.20;12.77;;;;;;;7.08;67.49;100476.66;7691988;32;39186;-83
2022/12/05 09:19:05;;;;;;;28.95;13.55;;;;;;;7.05;67.31;100466.25;7706917;32;40763;-83
2022/12/05 09:23:23;;;;;;;23.98;13.77;;;;;;;7.12;67.49;100464.28;7710963;32;38044;-83
2022/12/05 09:27:40;;;;;;;23.77;12.93;;;;;;;6.76;68.31;100470.63;7708127;32;36803;-83
2022/12/05 09:31:56;;;;;;;24.12;13.13;;;;;;;7.22;67.29;100468.31;7709524;32;39014;-83
2022/12/05 09:36:18;;;;;;;23.10;13.02;;;;;;;7.14;67.65;100462.16;7710527;32;40661;-83
2022/12/05 09:40:39;;;;;;;22.48;12.40;;;;;;;7.23;67.49;100457.22;7708104;32;38523;-83
2022/12/05 09:45:18;;;;;;;24.70;12.45;;;;;;;7.56;66.41;100446.87;7707996;32;37779;-82
2022/12/05 09:49:39;;;;;;;24.37;12.80;;;;;;;7.37;67.26;100459.75;7709277;32;39256;-82
2022/12/05 09:53:55;;;;;;;23.90;12.80;;;;;;;7.02;67.98;100453.19;7697548;32;40820;-83
2022/12/05 09:58:37;;;;;;;24.15;13.00;;;;;;;6.96;68.31;100456.81;7709519;32;37253;-83
2022/12/05 10:03:20;;;;;;;24.65;13.85;;;;;;;7.26;67.42;100464.06;7710680;32;37852;-83
2022/12/05 10:07:38;;;;;;;25.83;13.40;;;;;;;7.37;66.85;100457.84;7710366;32;39081;-83
2022/12/05 10:12:01;;;;;;;24.35;12.65;;;;;;;7.03;68.24;100449.41;7709389;32;39688;-84
2022/12/05 10:16:35;;;;;;;;;;;;;;;7.50;66.60;100452.19;7709543;32;38846;-83
2022/12/05 10:21:07;;;;;;;20.17;11.88;;;;;;;7.37;67.01;100449.72;7710870;32;36436;-83
2022/12/05 10:25:27;;;;;;;23.42;13.35;;;;;;;7.46;66.62;100444.75;7710411;32;39275;-83
2022/12/05 10:29:58;;;;;;;22.13;12.73;;;;;;;7.37;66.57;100436.13;7708866;32;40917;-83
2022/12/05 10:34:30;;;;;;;28.23;13.40;;;;;;;7.27;67.44;100433.19;7709980;32;38709;-83
2022/12/05 10:38:49;;;;;;;24.87;13.50;;;;;;;7.50;66.72;100421.50;7709027;32;37865;-82
2022/12/05 10:43:07;;;;;;;24.10;13.10;;;;;;;7.42;66.85;100419.16;7710213;32;38303;-82
2022/12/05 10:47:25;;;;;;;24.87;13.55;;;;;;;7.29;66.57;100420.22;7709724;32;39949;-82
2022/12/05 10:51:42;;;;;;;25.60;13.02;;;;;;;7.22;67.54;100425.75;7709580;32;39062;-82
2022/12/05 10:56:00;;;;;;;22.65;12.55;;;;;;;7.76;65.90;100408.50;7709588;32;37036;-83
2022/12/05 11:00:42;;;;;;;26.23;13.02;;;;;;;7.69;65.59;100400.50;7709252;32;39481;-83
2022/12/05 11:05:02;;;;;;;23.75;12.85;;;;;;;7.48;66.77;100404.66;7709484;32;40048;-83
2022/12/05 11:09:22;;;;;;;21.92;12.45;;;;;;;7.55;66.36;100394.50;7710875;32;38035;-83
2022/12/05 11:13:50;;;;;;;23.05;13.40;;;;;;;7.60;65.99;100388.38;7713052;32;37129;-83
2022/12/05 11:18:29;;;;;;;24.10;12.75;;;;;;;7.47;66.75;100384.84;7711712;32;39937;-83
2022/12/05 11:22:48;;;;;;;26.55;13.07;;;;;;;7.70;65.81;100385.87;7712921;32;39959;-83
2022/12/05 11:27:19;;;;;;;25.90;13.60;;;;;;;7.23;67.26;100377.78;7711607;32;38956;-83
2022/12/05 11:31:36;;;;;;;26.65;14.55;;;;;;;7.51;66.92;100361.59;7712673;32;36833;-83
2022/12/05 11:35:54;;;;;;;26.05;14.98;;;;;;;7.64;66.46;100362.37;7712731;32;39069;-83
2022/12/05 11:40:29;;;;;;;27.17;14.07;;;;;;;7.59;66.68;100362.28;7711397;32;39666;-83
2022/12/05 11:45:13;;;;;;;30.60;20.23;;;;;;;7.63;66.60;100360.75;7711489;32;38016;-83
2022/12/05 11:49:50;;;;;;;23.62;14.87;;;;;;;8.06;65.49;100356.75;7712673;32;36914;-83
2022/12/05 11:54:19;;;;;;;22.85;12.48;;;;;;;7.64;66.78;100343.41;7712550;32;38983;-83
2022/12/05 11:59:08;;;;;;;25.25;14.48;;;;;;;8.12;65.31;100350.34;7712041;32;40156;-83
2022/12/05 12:03:36;;;;;;;25.33;14.50;;;;;;;7.58;66.83;100341.66;7712325;32;37949;-83
2022/12/05 12:08:23;;;;;;;25.42;13.60;;;;;;;8.06;65.30;100338.56;7711027;32;36939;-83
2022/12/05 12:12:56;;;;;;;25.98;14.20;;;;;;;8.12;64.92;100346.81;7712137;32;39178;-83
2022/12/05 12:17:34;;;;;;;27.67;14.38;;;;;;;8.07;64.86;100348.38;7711639;32;40018;-83
2022/12/05 12:21:59;;;;;;;27.83;15.02;;;;;;;7.72;66.18;100332.19;7711449;32;38592;-83
2022/12/05 12:26:47;;;;;;;27.92;14.27;;;;;;;7.97;65.36;100339.19;7712029;32;37085;-83
2022/12/05 12:31:11;;;;;;;23.55;13.93;;;;;;;7.99;65.05;100337.88;7703189;32;39883;-83
2022/12/05 12:35:59;;;;;;;30.80;15.70;;;;;;;8.32;64.02;100320.03;7712197;32;40810;-82
2022/12/05 12:40:48;;;;;;;26.98;15.30;;;;;;;8.12;64.35;100315.03;7711812;32;37800;-83
2022/12/05 12:45:23;;;;;;;26.77;14.77;;;;;;;8.06;64.59;100318.75;7711884;32;36862;-82
2022/12/05 12:49:44;;;;;;;26.70;14.45;;;;;;;8.21;64.26;100324.47;7711843;32;39994;-82
2022/12/05 12:54:45;;;;;;;27.98;14.95;;;;;;;8.22;64.07;100309.81;7711652;32;40043;-83
2022/12/05 12:59:38;;;;;;;31.40;14.98;;;;;;;8.09;64.56;100299.25;7703016;32;38849;-82
2022/12/05 13:04:18;;;;;;;24.33;14.07;;;;;;;7.93;65.38;100294.59;7711735;32;37838;-83
2022/12/05 13:08:49;;;;;;;26.62;15.35;;;;;;;8.03;64.98;100294.78;7711625;32;40011;-83
2022/12/05 13:13:12;;;;;;;28.40;15.68;;;;;;;8.13;64.51;100286.81;7710354;32;39861;-83
2022/12/05 13:17:31;;;;;;;24.10;13.90;;;;;;;7.74;65.46;100293.94;7711140;32;38557;-83
2022/12/05 13:21:49;;;;;;;23.58;14.23;;;;;;;8.25;64.27;100290.31;7711107;32;37214;-84
2022/12/05 13:26:10;;;;;;;24.67;14.38;;;;;;;8.46;63.56;100293.41;7711429;32;38270;-84
2022/12/05 13:30:27;;;;;;;25.05;14.32;;;;;;;8.25;64.10;100294.91;7710277;32;40893;-83
2022/12/05 13:34:47;;;;;;;24.98;14.05;;;;;;;7.89;65.34;100286.09;7710234;32;38022;-83
2022/12/05 13:43:52;;;;;;;20.30;12.73;;;;;;;7.83;65.64;100303.34;7710281;32;39160;-83
2022/12/05 13:48:24;;;;;;;24.52;14.10;;;;;;;8.06;64.90;100297.03;7711140;32;39934;-83
2022/12/05 13:53:09;;;;;;;21.50;13.18;;;;;;;7.88;65.28;100303.44;7709672;32;38833;-82
2022/12/05 13:57:53;;;;;;;19.67;12.70;;;;;;;8.05;65.00;100312.50;7687489;32;158036;-82
2022/12/05 14:02:42;;;;;;;20.02;13.02;;;;;;;8.52;63.24;100308.75;7709496;32;39721;-83
2022/12/05 14:07:00;;;;;;;22.73;13.57;;;;;;;8.11;64.33;100309.88;7700152;32;40132;-83
2022/12/05 14:11:16;;;;;;;23.20;13.23;;;;;;;8.13;64.12;100318.59;7709672;32;38034;-83
2022/12/05 14:15:44;;;;;;;19.33;12.63;;;;;;;8.38;63.52;100316.34;7710524;32;37876;-84
2022/12/05 14:20:18;;;;;;;20.85;13.23;;;;;;;8.18;64.09;100302.41;7709174;32;39875;-84
2022/12/05 14:25:17;;;;;;;19.80;13.00;;;;;;;7.69;65.28;100300.06;7710203;32;39971;-83
2022/12/05 14:29:48;;;;;;;23.05;13.18;;;;;;;8.06;64.47;100294.31;7696862;32;38641;-84
2022/12/05 14:34:12;;;;;;;18.42;11.68;;;;;;;8.06;64.30;100294.31;7709975;32;37223;-83
2022/12/05 14:38:32;;;;;;;20.75;12.93;;;;;;;8.20;63.80;100294.84;7708743;32;38335;-82
2022/12/05 14:43:18;;;;;;;21.17;14.10;;;;;;;8.02;64.53;100293.12;7710137;32;40598;-82
2022/12/05 14:47:34;;;;;;;18.85;12.45;;;;;;;8.37;63.44;100294.87;7713155;32;38690;-83
2022/12/05 14:51:57;;;;;;;20.90;13.50;;;;;;;8.38;63.36;100293.78;7707498;32;37141;-73
2022/12/05 14:56:18;;;;;;;20.98;12.77;;;;;;;8.12;64.27;100292.50;7710800;32;38374;-83
2022/12/05 15:00:36;;;;;;;22.87;14.02;;;;;;;8.21;64.08;100288.31;7704293;32;39784;-82
2022/12/05 15:05:23;;;;;;;22.75;13.27;;;;;;;8.26;63.72;100288.41;7708634;32;37992;-82
2022/12/05 15:09:53;;;;;;;22.48;12.68;;;;;;;8.32;63.61;100281.19;7712705;32;36098;-82
2022/12/05 15:14:20;;;;;;;24.83;14.18;;;;;;;8.17;64.11;100274.41;7712032;32;38963;-80
2022/12/05 15:18:55;;;;;;;24.60;14.87;;;;;;;8.23;64.17;100273.44;7711145;32;40639;-80
2022/12/05 15:23:43;;;;;;;28.92;15.27;;;;;;;8.11;64.04;100269.97;7710703;32;36475;-80
2022/12/05 15:28:05;;;;;;;23.58;14.73;;;;;;;8.04;64.51;100272.81;7712163;32;38208;-80
2022/12/05 15:32:26;;;;;;;23.23;14.45;;;;;;;7.90;64.99;100258.72;7712173;32;39253;-81
2022/12/05 15:36:49;;;;;;;23.15;15.07;;;;;;;8.21;64.47;100253.84;7710520;32;39660;-81
2022/12/05 15:41:14;;;;;;;;;;;;;;;8.38;63.68;100248.44;7712317;32;37806;-80
2022/12/05 15:45:31;;;;;;;24.10;16.33;;;;;;;8.32;63.96;100249.41;7712038;32;36893;-80
2022/12/05 15:49:47;;;;;;;23.50;14.55;;;;;;;8.32;64.16;100265.72;7711580;32;39422;-82
2022/12/05 15:54:19;;;;;;;26.00;16.10;;;;;;;8.04;65.31;100258.44;7711601;32;39944;-82
2022/12/05 15:58:54;;;;;;;24.42;15.23;;;;;;;8.33;64.12;100255.66;7710195;32;38131;-82
2022/12/05 16:03:38;;;;;;;24.25;15.30;;;;;;;8.15;64.79;100254.81;7711156;32;37167;-81
2022/12/05 16:07:56;;;;;;;26.95;15.77;;;;;;;8.15;64.65;100256.72;7711491;32;39529;-82
2022/12/05 16:12:22;;;;;;;29.00;15.43;;;;;;;8.14;64.96;100266.75;7711514;32;40716;-81
2022/12/05 16:16:38;;;;;;;25.75;16.05;;;;;;;7.97;65.95;100271.31;7711296;32;37802;-80
2022/12/05 16:21:00;;;;;;;25.90;16.10;;;;;;;8.32;64.70;100254.03;7711407;32;37176;-81
2022/12/05 16:25:37;;;;;;;28.40;16.50;;;;;;;8.48;63.98;100253.22;7711310;32;40029;-82
2022/12/05 16:30:15;;;;;;;26.10;15.73;;;;;;;8.46;64.21;100261.63;7696797;32;39879;-83
2022/12/05 16:34:32;;;;;;;30.58;16.45;;;;;;;8.44;64.45;100265.66;7683799;32;38161;-83
2022/12/05 16:38:49;;;;;;;28.85;16.73;;;;;;;8.48;64.27;100264.09;7685937;32;38031;-83
2022/12/05 16:43:16;;;;;;;26.92;16.77;;;;;;;8.44;64.43;100262.94;7717157;32;40203;-82
2022/12/05 16:48:08;;;;;;;29.75;17.70;;;;;;;8.28;64.87;100254.50;7723919;32;39856;-82
2022/12/05 16:52:29;;;;;;;29.23;16.33;;;;;;;8.15;65.44;100259.44;7709748;32;38438;-82
2022/12/05 16:56:45;;;;;;;31.65;16.73;;;;;;;8.47;64.60;100251.59;7710778;32;37487;-83
2022/12/05 17:01:04;;;;;;;26.37;16.58;;;;;;;8.46;64.32;100248.03;7697267;32;39246;-83
2022/12/05 17:05:20;;;;;;;27.98;16.70;;;;;;;8.43;64.57;100250.44;7699884;32;40673;-82
2022/12/05 17:09:36;;;;;;;30.70;16.95;;;;;;;8.38;64.93;100247.59;7684107;32;37719;-84
2022/12/05 17:13:56;;;;;;;28.58;16.35;;;;;;;8.21;65.72;100245.69;7694326;32;36492;-83
2022/12/05 17:18:19;;;;;;;31.60;17.17;;;;;;;8.46;64.73;100234.44;7693972;32;39246;-84
2022/12/05 17:22:35;;;;;;;29.75;17.70;;;;;;;8.43;65.05;100236.84;7711581;32;40989;-82
2022/12/05 17:26:51;;;;;;;29.30;17.83;;;;;;;8.70;64.33;100228.03;7708076;32;37938;-83
2022/12/05 17:31:11;;;;;;;30.42;18.58;;;;;;;8.58;64.76;100226.22;7684766;32;37163;-83
2022/12/05 17:35:28;;;;;;;33.03;19.52;;;;;;;8.47;65.06;100229.88;7685015;32;39377;-83
2022/12/05 17:39:45;;;;;;;29.05;17.75;;;;;;;8.51;65.03;100220.13;7684722;32;40206;-84
2022/12/05 17:44:01;;;;;;;29.63;18.67;;;;;;;8.53;64.98;100233.47;7699832;32;38785;-82
2022/12/05 17:48:17;;;;;;;33.22;20.00;;;;;;;8.43;65.54;100226.81;7711163;32;37322;-84
2022/12/05 17:52:33;;;;;;;31.37;19.12;;;;;;;8.62;65.03;100221.94;7708228;32;39241;-84
2022/12/05 17:56:50;;;;;;;29.40;18.42;;;;;;;8.68;64.90;100213.87;7710583;32;39761;-85
2022/12/05 18:01:06;;;;;;;28.98;17.75;;;;;;;8.65;64.95;100210.56;7710876;32;37740;-85
2022/12/05 18:05:23;;;;;;;35.00;19.55;;;;;;;8.34;66.04;100214.66;7710817;32;37152;-83
2022/12/05 18:09:39;;;;;;;31.73;18.75;;;;;;;8.34;66.57;100224.72;7710800;32;40193;-83
2022/12/05 18:13:55;;;;;;;32.92;18.50;;;;;;;8.71;65.30;100224.22;7687950;32;39985;-84
2022/12/05 18:18:15;;;;;;;29.05;17.30;;;;;;;8.70;65.39;100223.41;7705122;32;38600;-84
2022/12/05 18:22:31;;;;;;;30.58;18.20;;;;;;;8.69;65.38;100210.88;7710010;32;36093;-84
2022/12/05 18:26:47;;;;;;;31.85;18.83;;;;;;;8.87;64.92;100209.81;7706281;32;40056;-84
2022/12/05 18:31:14;;;;;;;33.65;19.25;;;;;;;8.44;66.81;100216.75;7683030;32;39876;-85
2022/12/05 18:35:39;;;;;;;29.20;18.60;;;;;;;8.80;65.53;100229.00;7683375;32;37902;-86
2022/12/05 18:39:56;;;;;;;31.87;19.27;;;;;;;8.94;64.87;100221.31;7690610;32;37027;-86
2022/12/05 18:44:12;;;;;;;30.65;18.83;;;;;;;8.80;65.29;100211.88;7691081;32;39089;-85
2022/12/05 18:48:32;;;;;;;32.75;18.85;;;;;;;9.20;64.27;100210.78;7683028;32;39857;-85
2022/12/05 18:53:02;;;;;;;;;;;;;;;9.05;64.87;100196.97;7683347;32;37631;-85
2022/12/05 18:57:18;;;;;;;33.67;18.52;;;;;;;9.08;64.95;100193.78;7690299;32;37551;-85
2022/12/05 19:01:38;;;;;;;35.13;19.98;;;;;;;8.94;65.39;100207.72;7709379;32;39462;-85
2022/12/05 19:05:54;;;;;;;38.55;19.95;;;;;;;8.71;66.32;100206.03;7687239;32;41005;-84
2022/12/05 19:10:10;;;;;;;37.00;20.55;;;;;;;8.65;66.55;100205.12;7682160;32;38700;-85
2022/12/05 19:14:31;;;;;;;33.10;19.12;;;;;;;8.84;66.09;100197.50;7682533;32;37297;-84
2022/12/05 19:18:51;;;;;;;39.08;20.88;;;;;;;8.96;66.08;100193.88;7682358;32;40095;-84
2022/12/05 19:23:09;;;;;;;38.58;20.37;;;;;;;8.98;65.99;100189.00;7682002;32;40978;-83
2022/12/05 19:27:26;;;;;;;35.00;20.02;;;;;;;8.96;66.18;100183.00;7687210;32;38779;-86
2022/12/05 19:31:46;;;;;;;34.25;20.25;;;;;;;9.09;65.96;100189.94;7710857;32;37192;-79
2022/12/05 19:36:06;;;;;;;35.72;21.58;;;;;;;9.01;66.25;100181.16;7711487;32;39014;-79
2022/12/05 19:40:22;;;;;;;37.47;21.37;;;;;;;9.00;66.37;100178.69;7711480;32;40791;-82
2022/12/05 19:44:38;;;;;;;38.17;21.10;;;;;;;8.71;67.43;100180.75;7710740;32;38687;-81
2022/12/05 19:48:56;;;;;;;39.50;21.92;;;;;;;8.95;66.68;100184.06;7711013;32;37503;-82
2022/12/05 19:53:13;;;;;;;39.55;21.40;;;;;;;8.71;67.68;100192.44;7710361;32;38013;-82
2022/12/05 19:57:29;;;;;;;37.75;21.77;;;;;;;9.22;66.05;100175.97;7709540;32;40073;-82
2022/12/05 20:01:46;;;;;;;38.67;22.10;;;;;;;8.60;68.19;100164.28;7708035;32;39459;-82
2022/12/05 20:06:03;;;;;;;41.22;21.58;;;;;;;8.88;67.43;100161.69;7709985;32;38117;-83
2022/12/05 20:10:19;;;;;;;40.17;21.58;;;;;;;9.07;66.71;100156.75;7712606;32;39987;-83
2022/12/05 20:14:35;;;;;;;40.38;21.48;;;;;;;9.13;66.45;100161.19;7711716;32;39914;-81
2022/12/05 20:18:54;;;;;;;40.00;21.77;;;;;;;8.91;67.52;100156.56;7711684;32;38013;-84
2022/12/05 20:23:10;;;;;;;38.15;20.85;;;;;;;8.79;67.81;100159.37;7710915;32;36364;-83
2022/12/05 20:27:26;;;;;;;40.55;22.83;;;;;;;9.01;67.17;100151.25;7712115;32;38888;-84
2022/12/05 20:31:43;;;;;;;42.75;22.17;;;;;;;9.11;67.00;100153.28;7712167;32;40775;-84